sensor_id;sensor_type;location;lat;lon;timestamp;P1;durP1;ratioP1;P2;durP2;ratioP2
68479;SDS011;55469;48.934;12.050;2023-08-17T00:00:22;6.60;;;4.85;;
68479;SDS011;55469;48.934;12.050;2023-08-17T00:02:48;5.80;;;4.60;;
68479;SDS011;55469;48.934;12.050;2023-08-17T00:05:13;5.20;;;4.50;;
68479;SDS011;55469;48.934;12.050;2023-08-17T00:07:40;5.95;;;4.93;;
68479;SDS011;55469;48.934;12.050;2023-08-17T00:10:05;7.55;;;4.90;;
68479;SDS011;55469;48.934;12.050;2023-08-17T00:12:31;7.30;;;4.78;;
68479;SDS011;55469;48.934;12.050;2023-08-17T00:14:57;5.50;;;4.97;;
68479;SDS011;55469;48.934;12.050;2023-08-17T00:17:23;5.07;;;4.35;;
68479;SDS011;55469;48.934;12.050;2023-08-17T00:19:48;6.18;;;4.80;;
68479;SDS011;55469;48.934;12.050;2023-08-17T00:22:15;6.68;;;4.70;;
68479;SDS011;55469;48.934;12.050;2023-08-17T00:24:41;4.63;;;4.20;;
68479;SDS011;55469;48.934;12.050;2023-08-17T00:27:09;5.22;;;4.40;;
68479;SDS011;55469;48.934;12.050;2023-08-17T00:29:36;6.10;;;4.80;;
68479;SDS011;55469;48.934;12.050;2023-08-17T00:32:02;5.90;;;4.57;;
68479;SDS011;55469;48.934;12.050;2023-08-17T00:34:28;5.43;;;4.78;;
68479;SDS011;55469;48.934;12.050;2023-08-17T00:36:54;5.93;;;4.43;;
68479;SDS011;55469;48.934;12.050;2023-08-17T00:39:20;8.70;;;5.30;;
68479;SDS011;55469;48.934;12.050;2023-08-17T00:41:45;5.15;;;4.60;;
68479;SDS011;55469;48.934;12.050;2023-08-17T00:44:11;7.22;;;4.95;;
68479;SDS011;55469;48.934;12.050;2023-08-17T00:46:37;7.28;;;5.32;;
68479;SDS011;55469;48.934;12.050;2023-08-17T00:49:04;5.60;;;4.72;;
68479;SDS011;55469;48.934;12.050;2023-08-17T00:51:31;6.45;;;5.20;;
68479;SDS011;55469;48.934;12.050;2023-08-17T00:53:58;6.15;;;4.97;;
68479;SDS011;55469;48.934;12.050;2023-08-17T00:56:26;5.40;;;4.90;;
68479;SDS011;55469;48.934;12.050;2023-08-17T00:58:52;8.57;;;5.28;;
68479;SDS011;55469;48.934;12.050;2023-08-17T01:01:19;7.18;;;5.07;;
68479;SDS011;55469;48.934;12.050;2023-08-17T01:03:45;8.30;;;5.45;;
68479;SDS011;55469;48.934;12.050;2023-08-17T01:06:11;6.03;;;5.00;;
68479;SDS011;55469;48.934;12.050;2023-08-17T01:08:37;5.90;;;4.93;;
68479;SDS011;55469;48.934;12.050;2023-08-17T01:14:09;5.80;;;5.20;;
68479;SDS011;55469;48.934;12.050;2023-08-17T01:16:54;5.45;;;4.95;;
68479;SDS011;55469;48.934;12.050;2023-08-17T01:19:28;6.95;;;5.03;;
68479;SDS011;55469;48.934;12.050;2023-08-17T01:22:00;5.65;;;5.15;;
68479;SDS011;55469;48.934;12.050;2023-08-17T01:24:30;6.20;;;5.18;;
68479;SDS011;55469;48.934;12.050;2023-08-17T01:26:55;5.97;;;5.30;;
68479;SDS011;55469;48.934;12.050;2023-08-17T01:29:21;5.53;;;4.93;;
68479;SDS011;55469;48.934;12.050;2023-08-17T01:34:47;5.88;;;4.75;;
68479;SDS011;55469;48.934;12.050;2023-08-17T01:37:23;5.43;;;4.93;;
68479;SDS011;55469;48.934;12.050;2023-08-17T01:39:54;5.30;;;4.80;;
68479;SDS011;55469;48.934;12.050;2023-08-17T01:42:23;6.00;;;5.15;;
68479;SDS011;55469;48.934;12.050;2023-08-17T01:44:49;5.40;;;4.82;;
68479;SDS011;55469;48.934;12.050;2023-08-17T01:47:15;5.20;;;4.70;;
68479;SDS011;55469;48.934;12.050;2023-08-17T01:49:46;5.63;;;4.93;;
68479;SDS011;55469;48.934;12.050;2023-08-17T01:52:12;6.95;;;5.50;;
68479;SDS011;55469;48.934;12.050;2023-08-17T01:54:37;5.30;;;4.82;;
68479;SDS011;55469;48.934;12.050;2023-08-17T01:57:03;6.55;;;5.05;;
68479;SDS011;55469;48.934;12.050;2023-08-17T01:59:29;9.43;;;5.10;;
68479;SDS011;55469;48.934;12.050;2023-08-17T02:01:55;6.68;;;5.07;;
68479;SDS011;55469;48.934;12.050;2023-08-17T02:04:20;5.80;;;4.93;;
68479;SDS011;55469;48.934;12.050;2023-08-17T02:06:46;5.45;;;4.93;;
68479;SDS011;55469;48.934;12.050;2023-08-17T02:09:12;6.43;;;5.07;;
68479;SDS011;55469;48.934;12.050;2023-08-17T02:11:38;6.53;;;5.30;;
68479;SDS011;55469;48.934;12.050;2023-08-17T02:14:03;6.60;;;5.18;;
68479;SDS011;55469;48.934;12.050;2023-08-17T02:16:29;5.15;;;4.55;;
68479;SDS011;55469;48.934;12.050;2023-08-17T02:18:55;7.22;;;5.70;;
68479;SDS011;55469;48.934;12.050;2023-08-17T02:21:21;6.53;;;5.28;;
68479;SDS011;55469;48.934;12.050;2023-08-17T02:23:46;6.00;;;5.15;;
68479;SDS011;55469;48.934;12.050;2023-08-17T02:26:12;6.15;;;5.55;;
68479;SDS011;55469;48.934;12.050;2023-08-17T02:28:38;6.22;;;5.20;;
68479;SDS011;55469;48.934;12.050;2023-08-17T02:31:04;6.13;;;5.30;;
68479;SDS011;55469;48.934;12.050;2023-08-17T02:33:31;7.43;;;5.38;;
68479;SDS011;55469;48.934;12.050;2023-08-17T02:35:58;5.60;;;5.10;;
68479;SDS011;55469;48.934;12.050;2023-08-17T02:38:24;5.80;;;5.18;;
68479;SDS011;55469;48.934;12.050;2023-08-17T02:40:50;6.63;;;5.00;;
68479;SDS011;55469;48.934;12.050;2023-08-17T02:43:15;6.25;;;5.20;;
68479;SDS011;55469;48.934;12.050;2023-08-17T02:45:41;7.18;;;5.30;;
68479;SDS011;55469;48.934;12.050;2023-08-17T02:48:07;7.40;;;5.07;;
68479;SDS011;55469;48.934;12.050;2023-08-17T02:50:33;6.55;;;5.20;;
68479;SDS011;55469;48.934;12.050;2023-08-17T02:52:58;5.20;;;4.70;;
68479;SDS011;55469;48.934;12.050;2023-08-17T02:55:25;6.15;;;4.82;;
68479;SDS011;55469;48.934;12.050;2023-08-17T02:57:50;7.53;;;5.00;;
68479;SDS011;55469;48.934;12.050;2023-08-17T03:00:16;5.70;;;5.13;;
68479;SDS011;55469;48.934;12.050;2023-08-17T03:02:42;5.22;;;4.72;;
68479;SDS011;55469;48.934;12.050;2023-08-17T03:05:07;6.43;;;5.28;;
68479;SDS011;55469;48.934;12.050;2023-08-17T03:07:33;7.18;;;5.20;;
68479;SDS011;55469;48.934;12.050;2023-08-17T03:09:59;5.75;;;5.18;;
68479;SDS011;55469;48.934;12.050;2023-08-17T03:12:24;5.82;;;5.20;;
68479;SDS011;55469;48.934;12.050;2023-08-17T03:14:50;5.55;;;5.00;;
68479;SDS011;55469;48.934;12.050;2023-08-17T03:17:16;6.07;;;5.20;;
68479;SDS011;55469;48.934;12.050;2023-08-17T03:19:42;5.60;;;5.05;;
68479;SDS011;55469;48.934;12.050;2023-08-17T03:22:07;6.10;;;5.50;;
68479;SDS011;55469;48.934;12.050;2023-08-17T03:24:33;7.60;;;6.00;;
68479;SDS011;55469;48.934;12.050;2023-08-17T03:26:59;5.75;;;4.93;;
68479;SDS011;55469;48.934;12.050;2023-08-17T03:29:24;5.60;;;5.10;;
68479;SDS011;55469;48.934;12.050;2023-08-17T03:31:52;7.15;;;5.40;;
68479;SDS011;55469;48.934;12.050;2023-08-17T03:34:17;8.35;;;5.32;;
68479;SDS011;55469;48.934;12.050;2023-08-17T03:36:43;5.65;;;5.07;;
68479;SDS011;55469;48.934;12.050;2023-08-17T03:39:09;8.38;;;5.75;;
68479;SDS011;55469;48.934;12.050;2023-08-17T03:41:35;9.02;;;5.43;;
68479;SDS011;55469;48.934;12.050;2023-08-17T03:44:02;6.15;;;5.55;;
68479;SDS011;55469;48.934;12.050;2023-08-17T03:46:30;7.22;;;5.65;;
68479;SDS011;55469;48.934;12.050;2023-08-17T03:48:56;6.60;;;5.47;;
68479;SDS011;55469;48.934;12.050;2023-08-17T03:51:22;5.95;;;5.38;;
68479;SDS011;55469;48.934;12.050;2023-08-17T03:53:48;6.50;;;5.75;;
68479;SDS011;55469;48.934;12.050;2023-08-17T03:56:14;7.78;;;5.30;;
68479;SDS011;55469;48.934;12.050;2023-08-17T03:58:40;5.47;;;4.90;;
68479;SDS011;55469;48.934;12.050;2023-08-17T04:01:07;6.80;;;5.93;;
68479;SDS011;55469;48.934;12.050;2023-08-17T04:03:33;7.13;;;5.63;;
68479;SDS011;55469;48.934;12.050;2023-08-17T04:06:03;8.07;;;5.93;;
68479;SDS011;55469;48.934;12.050;2023-08-17T04:08:31;6.00;;;5.13;;
68479;SDS011;55469;48.934;12.050;2023-08-17T04:10:57;8.75;;;5.88;;
68479;SDS011;55469;48.934;12.050;2023-08-17T04:13:22;6.28;;;5.68;;
68479;SDS011;55469;48.934;12.050;2023-08-17T04:15:48;6.55;;;5.53;;
68479;SDS011;55469;48.934;12.050;2023-08-17T04:18:14;6.65;;;5.72;;
68479;SDS011;55469;48.934;12.050;2023-08-17T04:20:39;7.88;;;6.10;;
68479;SDS011;55469;48.934;12.050;2023-08-17T04:23:05;6.07;;;5.47;;
68479;SDS011;55469;48.934;12.050;2023-08-17T04:25:31;7.15;;;5.85;;
68479;SDS011;55469;48.934;12.050;2023-08-17T04:27:57;6.55;;;5.68;;
68479;SDS011;55469;48.934;12.050;2023-08-17T04:30:22;6.82;;;5.72;;
68479;SDS011;55469;48.934;12.050;2023-08-17T04:32:48;5.97;;;5.38;;
68479;SDS011;55469;48.934;12.050;2023-08-17T04:35:17;6.32;;;5.72;;
68479;SDS011;55469;48.934;12.050;2023-08-17T04:37:44;7.70;;;5.78;;
68479;SDS011;55469;48.934;12.050;2023-08-17T04:40:10;6.25;;;5.65;;
68479;SDS011;55469;48.934;12.050;2023-08-17T04:42:36;6.82;;;5.40;;
68479;SDS011;55469;48.934;12.050;2023-08-17T04:45:02;5.88;;;5.35;;
68479;SDS011;55469;48.934;12.050;2023-08-17T04:47:28;7.15;;;5.47;;
68479;SDS011;55469;48.934;12.050;2023-08-17T04:49:54;5.50;;;4.93;;
68479;SDS011;55469;48.934;12.050;2023-08-17T04:52:19;5.82;;;5.25;;
68479;SDS011;55469;48.934;12.050;2023-08-17T04:54:45;7.60;;;5.55;;
68479;SDS011;55469;48.934;12.050;2023-08-17T04:57:11;6.85;;;5.80;;
68479;SDS011;55469;48.934;12.050;2023-08-17T04:59:37;5.53;;;5.03;;
68479;SDS011;55469;48.934;12.050;2023-08-17T05:02:02;7.15;;;5.60;;
68479;SDS011;55469;48.934;12.050;2023-08-17T05:04:29;7.22;;;6.03;;
68479;SDS011;55469;48.934;12.050;2023-08-17T05:06:56;6.05;;;5.38;;
68479;SDS011;55469;48.934;12.050;2023-08-17T05:09:22;6.20;;;5.60;;
68479;SDS011;55469;48.934;12.050;2023-08-17T05:11:47;5.97;;;5.35;;
68479;SDS011;55469;48.934;12.050;2023-08-17T05:14:13;5.65;;;5.13;;
68479;SDS011;55469;48.934;12.050;2023-08-17T05:16:39;7.00;;;5.35;;
68479;SDS011;55469;48.934;12.050;2023-08-17T05:19:05;6.40;;;5.80;;
68479;SDS011;55469;48.934;12.050;2023-08-17T05:21:30;6.50;;;5.78;;
68479;SDS011;55469;48.934;12.050;2023-08-17T05:23:56;6.47;;;5.68;;
68479;SDS011;55469;48.934;12.050;2023-08-17T05:26:22;6.55;;;5.55;;
68479;SDS011;55469;48.934;12.050;2023-08-17T05:28:47;6.22;;;5.68;;
68479;SDS011;55469;48.934;12.050;2023-08-17T05:31:13;7.38;;;5.95;;
68479;SDS011;55469;48.934;12.050;2023-08-17T05:33:39;6.40;;;5.70;;
68479;SDS011;55469;48.934;12.050;2023-08-17T05:36:07;6.30;;;5.70;;
68479;SDS011;55469;48.934;12.050;2023-08-17T05:38:33;7.35;;;5.63;;
68479;SDS011;55469;48.934;12.050;2023-08-17T05:40:59;6.10;;;5.50;;
68479;SDS011;55469;48.934;12.050;2023-08-17T05:43:26;6.32;;;5.70;;
68479;SDS011;55469;48.934;12.050;2023-08-17T05:45:52;7.57;;;6.35;;
68479;SDS011;55469;48.934;12.050;2023-08-17T05:48:18;6.38;;;5.78;;
68479;SDS011;55469;48.934;12.050;2023-08-17T05:50:46;6.18;;;5.45;;
68479;SDS011;55469;48.934;12.050;2023-08-17T05:53:12;7.38;;;5.85;;
68479;SDS011;55469;48.934;12.050;2023-08-17T05:55:38;6.30;;;5.68;;
68479;SDS011;55469;48.934;12.050;2023-08-17T05:58:04;6.00;;;5.40;;
68479;SDS011;55469;48.934;12.050;2023-08-17T06:00:29;7.80;;;5.85;;
68479;SDS011;55469;48.934;12.050;2023-08-17T06:02:55;6.90;;;6.07;;
68479;SDS011;55469;48.934;12.050;2023-08-17T06:05:26;6.50;;;5.80;;
68479;SDS011;55469;48.934;12.050;2023-08-17T06:07:53;8.55;;;6.28;;
68479;SDS011;55469;48.934;12.050;2023-08-17T06:10:23;7.07;;;5.88;;
68479;SDS011;55469;48.934;12.050;2023-08-17T06:12:55;8.90;;;6.78;;
68479;SDS011;55469;48.934;12.050;2023-08-17T06:15:22;7.75;;;6.22;;
68479;SDS011;55469;48.934;12.050;2023-08-17T06:17:48;9.00;;;5.75;;
68479;SDS011;55469;48.934;12.050;2023-08-17T06:20:17;9.38;;;6.60;;
68479;SDS011;55469;48.934;12.050;2023-08-17T06:22:43;8.52;;;6.68;;
68479;SDS011;55469;48.934;12.050;2023-08-17T06:25:10;7.97;;;6.28;;
68479;SDS011;55469;48.934;12.050;2023-08-17T06:27:36;10.13;;;6.40;;
68479;SDS011;55469;48.934;12.050;2023-08-17T06:30:02;7.55;;;6.82;;
68479;SDS011;55469;48.934;12.050;2023-08-17T06:32:29;7.75;;;6.18;;
68479;SDS011;55469;48.934;12.050;2023-08-17T06:34:56;7.18;;;6.30;;
68479;SDS011;55469;48.934;12.050;2023-08-17T06:37:22;7.70;;;6.10;;
68479;SDS011;55469;48.934;12.050;2023-08-17T06:39:48;8.73;;;7.00;;
68479;SDS011;55469;48.934;12.050;2023-08-17T06:42:13;7.35;;;6.65;;
68479;SDS011;55469;48.934;12.050;2023-08-17T06:44:39;8.35;;;6.68;;
68479;SDS011;55469;48.934;12.050;2023-08-17T06:47:05;7.80;;;7.00;;
68479;SDS011;55469;48.934;12.050;2023-08-17T06:49:30;8.75;;;7.70;;
68479;SDS011;55469;48.934;12.050;2023-08-17T06:51:57;10.38;;;7.35;;
68479;SDS011;55469;48.934;12.050;2023-08-17T06:54:22;8.48;;;7.60;;
68479;SDS011;55469;48.934;12.050;2023-08-17T06:56:48;9.50;;;8.50;;
68479;SDS011;55469;48.934;12.050;2023-08-17T06:59:14;9.32;;;7.72;;
68479;SDS011;55469;48.934;12.050;2023-08-17T07:01:40;9.48;;;7.68;;
68479;SDS011;55469;48.934;12.050;2023-08-17T07:04:05;9.43;;;7.80;;
68479;SDS011;55469;48.934;12.050;2023-08-17T07:06:31;8.40;;;7.40;;
68479;SDS011;55469;48.934;12.050;2023-08-17T07:08:57;10.57;;;7.53;;
68479;SDS011;55469;48.934;12.050;2023-08-17T07:11:23;9.52;;;7.43;;
68479;SDS011;55469;48.934;12.050;2023-08-17T07:13:49;7.40;;;6.70;;
68479;SDS011;55469;48.934;12.050;2023-08-17T07:16:15;8.32;;;7.18;;
68479;SDS011;55469;48.934;12.050;2023-08-17T07:18:40;9.80;;;7.32;;
68479;SDS011;55469;48.934;12.050;2023-08-17T07:21:06;9.50;;;7.85;;
68479;SDS011;55469;48.934;12.050;2023-08-17T07:23:32;8.45;;;7.47;;
68479;SDS011;55469;48.934;12.050;2023-08-17T07:25:57;8.90;;;7.82;;
68479;SDS011;55469;48.934;12.050;2023-08-17T07:28:23;8.05;;;7.18;;
68479;SDS011;55469;48.934;12.050;2023-08-17T07:30:49;9.15;;;8.15;;
68479;SDS011;55469;48.934;12.050;2023-08-17T07:33:14;9.30;;;7.53;;
68479;SDS011;55469;48.934;12.050;2023-08-17T07:35:40;7.88;;;7.07;;
68479;SDS011;55469;48.934;12.050;2023-08-17T07:38:06;8.35;;;7.22;;
68479;SDS011;55469;48.934;12.050;2023-08-17T07:40:32;8.63;;;7.80;;
68479;SDS011;55469;48.934;12.050;2023-08-17T07:42:57;8.90;;;7.78;;
68479;SDS011;55469;48.934;12.050;2023-08-17T07:45:23;8.77;;;7.45;;
68479;SDS011;55469;48.934;12.050;2023-08-17T07:47:49;8.48;;;7.50;;
68479;SDS011;55469;48.934;12.050;2023-08-17T07:50:14;8.70;;;7.75;;
68479;SDS011;55469;48.934;12.050;2023-08-17T07:52:40;10.95;;;7.97;;
68479;SDS011;55469;48.934;12.050;2023-08-17T07:55:06;9.38;;;7.47;;
68479;SDS011;55469;48.934;12.050;2023-08-17T07:57:32;8.20;;;7.38;;
68479;SDS011;55469;48.934;12.050;2023-08-17T07:59:57;9.30;;;8.18;;
68479;SDS011;55469;48.934;12.050;2023-08-17T08:02:23;9.38;;;8.18;;
68479;SDS011;55469;48.934;12.050;2023-08-17T08:04:49;8.82;;;8.02;;
68479;SDS011;55469;48.934;12.050;2023-08-17T08:07:15;10.18;;;7.75;;
68479;SDS011;55469;48.934;12.050;2023-08-17T08:09:40;9.10;;;8.20;;
68479;SDS011;55469;48.934;12.050;2023-08-17T08:12:06;9.02;;;8.00;;
68479;SDS011;55469;48.934;12.050;2023-08-17T08:14:35;9.02;;;7.90;;
68479;SDS011;55469;48.934;12.050;2023-08-17T08:17:01;8.95;;;8.13;;
68479;SDS011;55469;48.934;12.050;2023-08-17T08:19:26;10.70;;;8.73;;
68479;SDS011;55469;48.934;12.050;2023-08-17T08:21:52;9.27;;;8.27;;
68479;SDS011;55469;48.934;12.050;2023-08-17T08:24:18;9.60;;;8.23;;
68479;SDS011;55469;48.934;12.050;2023-08-17T08:26:43;8.52;;;7.65;;
68479;SDS011;55469;48.934;12.050;2023-08-17T08:29:09;10.05;;;7.97;;
68479;SDS011;55469;48.934;12.050;2023-08-17T08:31:35;8.73;;;7.82;;
68479;SDS011;55469;48.934;12.050;2023-08-17T08:34:01;9.20;;;8.18;;
68479;SDS011;55469;48.934;12.050;2023-08-17T08:36:27;9.43;;;8.40;;
68479;SDS011;55469;48.934;12.050;2023-08-17T08:38:53;9.32;;;8.40;;
68479;SDS011;55469;48.934;12.050;2023-08-17T08:41:19;9.98;;;7.55;;
68479;SDS011;55469;48.934;12.050;2023-08-17T08:43:45;8.48;;;7.63;;
68479;SDS011;55469;48.934;12.050;2023-08-17T08:46:11;8.35;;;7.47;;
68479;SDS011;55469;48.934;12.050;2023-08-17T08:48:38;9.35;;;7.95;;
68479;SDS011;55469;48.934;12.050;2023-08-17T08:51:07;9.60;;;8.63;;
68479;SDS011;55469;48.934;12.050;2023-08-17T08:53:39;9.40;;;8.32;;
68479;SDS011;55469;48.934;12.050;2023-08-17T08:56:11;9.20;;;8.30;;
68479;SDS011;55469;48.934;12.050;2023-08-17T08:58:40;9.18;;;8.27;;
68479;SDS011;55469;48.934;12.050;2023-08-17T09:01:07;8.52;;;7.72;;
68479;SDS011;55469;48.934;12.050;2023-08-17T09:03:36;9.02;;;7.88;;
68479;SDS011;55469;48.934;12.050;2023-08-17T09:06:03;8.80;;;7.85;;
68479;SDS011;55469;48.934;12.050;2023-08-17T09:08:29;8.77;;;7.88;;
68479;SDS011;55469;48.934;12.050;2023-08-17T09:10:56;9.73;;;8.45;;
68479;SDS011;55469;48.934;12.050;2023-08-17T09:13:22;9.40;;;8.50;;
68479;SDS011;55469;48.934;12.050;2023-08-17T09:15:48;8.98;;;7.70;;
68479;SDS011;55469;48.934;12.050;2023-08-17T09:18:14;9.25;;;8.35;;
68479;SDS011;55469;48.934;12.050;2023-08-17T09:20:44;9.35;;;8.32;;
68479;SDS011;55469;48.934;12.050;2023-08-17T09:23:12;9.43;;;8.25;;
68479;SDS011;55469;48.934;12.050;2023-08-17T09:25:41;9.18;;;8.13;;
68479;SDS011;55469;48.934;12.050;2023-08-17T09:28:10;9.82;;;8.27;;
68479;SDS011;55469;48.934;12.050;2023-08-17T09:30:49;9.70;;;8.70;;
68479;SDS011;55469;48.934;12.050;2023-08-17T09:33:21;9.27;;;8.32;;
68479;SDS011;55469;48.934;12.050;2023-08-17T09:35:49;9.10;;;8.20;;
68479;SDS011;55469;48.934;12.050;2023-08-17T09:38:16;9.38;;;8.25;;
68479;SDS011;55469;48.934;12.050;2023-08-17T09:40:42;9.63;;;8.30;;
68479;SDS011;55469;48.934;12.050;2023-08-17T09:43:09;9.13;;;8.23;;
68479;SDS011;55469;48.934;12.050;2023-08-17T09:45:38;9.00;;;8.10;;
68479;SDS011;55469;48.934;12.050;2023-08-17T09:48:04;9.05;;;8.15;;
68479;SDS011;55469;48.934;12.050;2023-08-17T09:50:32;9.70;;;8.68;;
68479;SDS011;55469;48.934;12.050;2023-08-17T09:52:58;9.27;;;7.93;;
68479;SDS011;55469;48.934;12.050;2023-08-17T09:55:24;9.80;;;8.82;;
68479;SDS011;55469;48.934;12.050;2023-08-17T09:57:50;9.73;;;8.73;;
68479;SDS011;55469;48.934;12.050;2023-08-17T10:00:18;9.27;;;8.38;;
68479;SDS011;55469;48.934;12.050;2023-08-17T10:02:45;9.43;;;8.48;;
68479;SDS011;55469;48.934;12.050;2023-08-17T10:05:14;9.68;;;8.77;;
68479;SDS011;55469;48.934;12.050;2023-08-17T10:07:49;9.85;;;8.45;;
68479;SDS011;55469;48.934;12.050;2023-08-17T10:10:24;9.70;;;8.63;;
68479;SDS011;55469;48.934;12.050;2023-08-17T10:13:05;10.45;;;8.68;;
68479;SDS011;55469;48.934;12.050;2023-08-17T10:15:37;10.40;;;8.90;;
68479;SDS011;55469;48.934;12.050;2023-08-17T10:20:58;9.35;;;8.40;;
68479;SDS011;55469;48.934;12.050;2023-08-17T10:23:30;9.68;;;8.70;;
68479;SDS011;55469;48.934;12.050;2023-08-17T10:25:57;9.68;;;8.70;;
68479;SDS011;55469;48.934;12.050;2023-08-17T10:28:22;9.10;;;8.20;;
68479;SDS011;55469;48.934;12.050;2023-08-17T10:30:49;9.32;;;8.40;;
68479;SDS011;55469;48.934;12.050;2023-08-17T10:33:16;9.25;;;8.40;;
68479;SDS011;55469;48.934;12.050;2023-08-17T10:35:43;9.70;;;8.80;;
68479;SDS011;55469;48.934;12.050;2023-08-17T10:38:10;9.75;;;8.85;;
68479;SDS011;55469;48.934;12.050;2023-08-17T10:40:37;9.52;;;8.63;;
68479;SDS011;55469;48.934;12.050;2023-08-17T10:43:06;10.30;;;9.30;;
68479;SDS011;55469;48.934;12.050;2023-08-17T10:45:32;9.80;;;8.90;;
68479;SDS011;55469;48.934;12.050;2023-08-17T10:50:33;10.23;;;9.23;;
68479;SDS011;55469;48.934;12.050;2023-08-17T10:53:04;11.13;;;9.52;;
68479;SDS011;55469;48.934;12.050;2023-08-17T10:55:43;9.57;;;8.68;;
68479;SDS011;55469;48.934;12.050;2023-08-17T10:58:12;9.98;;;9.05;;
68479;SDS011;55469;48.934;12.050;2023-08-17T11:00:39;9.10;;;8.25;;
68479;SDS011;55469;48.934;12.050;2023-08-17T11:03:07;9.57;;;8.68;;
68479;SDS011;55469;48.934;12.050;2023-08-17T11:13:23;9.45;;;8.43;;
68479;SDS011;55469;48.934;12.050;2023-08-17T11:15:52;9.00;;;8.10;;
68479;SDS011;55469;48.934;12.050;2023-08-17T11:18:17;9.73;;;8.82;;
68479;SDS011;55469;48.934;12.050;2023-08-17T11:20:43;10.15;;;9.15;;
68479;SDS011;55469;48.934;12.050;2023-08-17T11:23:09;10.93;;;8.68;;
68479;SDS011;55469;48.934;12.050;2023-08-17T11:25:36;9.05;;;8.25;;
68479;SDS011;55469;48.934;12.050;2023-08-17T11:28:03;9.77;;;8.77;;
68479;SDS011;55469;48.934;12.050;2023-08-17T11:30:31;9.70;;;8.80;;
68479;SDS011;55469;48.934;12.050;2023-08-17T11:32:59;9.43;;;8.52;;
68479;SDS011;55469;48.934;12.050;2023-08-17T11:35:25;10.00;;;9.00;;
68479;SDS011;55469;48.934;12.050;2023-08-17T11:37:51;9.70;;;8.80;;
68479;SDS011;55469;48.934;12.050;2023-08-17T11:40:17;9.15;;;8.25;;
68479;SDS011;55469;48.934;12.050;2023-08-17T11:42:43;9.65;;;8.65;;
68479;SDS011;55469;48.934;12.050;2023-08-17T11:45:10;10.13;;;8.75;;
68479;SDS011;55469;48.934;12.050;2023-08-17T11:47:40;9.48;;;8.55;;
68479;SDS011;55469;48.934;12.050;2023-08-17T11:50:08;9.32;;;8.43;;
68479;SDS011;55469;48.934;12.050;2023-08-17T11:52:36;9.80;;;8.90;;
68479;SDS011;55469;48.934;12.050;2023-08-17T11:55:02;9.85;;;8.85;;
68479;SDS011;55469;48.934;12.050;2023-08-17T11:57:34;9.63;;;8.73;;
68479;SDS011;55469;48.934;12.050;2023-08-17T12:00:02;10.20;;;9.18;;
68479;SDS011;55469;48.934;12.050;2023-08-17T12:02:31;9.35;;;8.45;;
68479;SDS011;55469;48.934;12.050;2023-08-17T12:05:02;9.35;;;8.45;;
68479;SDS011;55469;48.934;12.050;2023-08-17T12:07:31;9.93;;;9.00;;
68479;SDS011;55469;48.934;12.050;2023-08-17T12:09:57;11.15;;;8.80;;
68479;SDS011;55469;48.934;12.050;2023-08-17T12:12:23;9.07;;;8.27;;
68479;SDS011;55469;48.934;12.050;2023-08-17T12:14:49;9.82;;;8.85;;
68479;SDS011;55469;48.934;12.050;2023-08-17T12:17:15;9.80;;;8.90;;
68479;SDS011;55469;48.934;12.050;2023-08-17T12:19:43;9.48;;;8.57;;
68479;SDS011;55469;48.934;12.050;2023-08-17T12:22:10;9.88;;;8.98;;
68479;SDS011;55469;48.934;12.050;2023-08-17T12:24:37;9.43;;;8.43;;
68479;SDS011;55469;48.934;12.050;2023-08-17T12:27:04;9.27;;;8.38;;
68479;SDS011;55469;48.934;12.050;2023-08-17T12:29:33;9.38;;;8.52;;
68479;SDS011;55469;48.934;12.050;2023-08-17T12:32:00;9.88;;;8.98;;
68479;SDS011;55469;48.934;12.050;2023-08-17T12:34:27;9.68;;;8.70;;
68479;SDS011;55469;48.934;12.050;2023-08-17T12:36:53;9.07;;;8.10;;
68479;SDS011;55469;48.934;12.050;2023-08-17T12:39:18;9.25;;;8.32;;
68479;SDS011;55469;48.934;12.050;2023-08-17T12:41:44;9.25;;;8.32;;
68479;SDS011;55469;48.934;12.050;2023-08-17T12:44:10;9.25;;;8.35;;
68479;SDS011;55469;48.934;12.050;2023-08-17T12:46:38;10.23;;;9.20;;
68479;SDS011;55469;48.934;12.050;2023-08-17T12:49:05;9.50;;;8.60;;
68479;SDS011;55469;48.934;12.050;2023-08-17T12:51:31;9.40;;;8.50;;
68479;SDS011;55469;48.934;12.050;2023-08-17T12:53:58;10.02;;;9.05;;
68479;SDS011;55469;48.934;12.050;2023-08-17T12:56:23;8.85;;;8.05;;
68479;SDS011;55469;48.934;12.050;2023-08-17T12:58:49;8.68;;;7.90;;
68479;SDS011;55469;48.934;12.050;2023-08-17T13:01:15;8.73;;;7.93;;
68479;SDS011;55469;48.934;12.050;2023-08-17T13:03:41;9.35;;;8.45;;
68479;SDS011;55469;48.934;12.050;2023-08-17T13:06:07;9.88;;;8.98;;
68479;SDS011;55469;48.934;12.050;2023-08-17T13:08:32;9.25;;;8.43;;
68479;SDS011;55469;48.934;12.050;2023-08-17T13:10:59;9.20;;;8.30;;
68479;SDS011;55469;48.934;12.050;2023-08-17T13:13:25;9.00;;;8.10;;
68479;SDS011;55469;48.934;12.050;2023-08-17T13:15:51;9.00;;;8.20;;
68479;SDS011;55469;48.934;12.050;2023-08-17T13:18:17;9.43;;;8.63;;
68479;SDS011;55469;48.934;12.050;2023-08-17T13:20:43;8.60;;;7.80;;
68479;SDS011;55469;48.934;12.050;2023-08-17T13:23:09;9.07;;;8.27;;
68479;SDS011;55469;48.934;12.050;2023-08-17T13:25:36;9.18;;;8.27;;
68479;SDS011;55469;48.934;12.050;2023-08-17T13:28:02;9.07;;;8.27;;
68479;SDS011;55469;48.934;12.050;2023-08-17T13:30:28;9.05;;;8.18;;
68479;SDS011;55469;48.934;12.050;2023-08-17T13:32:54;9.35;;;8.10;;
68479;SDS011;55469;48.934;12.050;2023-08-17T13:35:20;8.82;;;8.13;;
68479;SDS011;55469;48.934;12.050;2023-08-17T13:37:50;8.93;;;8.13;;
68479;SDS011;55469;48.934;12.050;2023-08-17T13:40:19;8.52;;;7.75;;
68479;SDS011;55469;48.934;12.050;2023-08-17T13:42:46;8.35;;;7.65;;
68479;SDS011;55469;48.934;12.050;2023-08-17T13:45:11;8.68;;;7.88;;
68479;SDS011;55469;48.934;12.050;2023-08-17T13:47:38;7.63;;;6.90;;
68479;SDS011;55469;48.934;12.050;2023-08-17T13:50:04;7.93;;;7.13;;
68479;SDS011;55469;48.934;12.050;2023-08-17T13:52:30;8.05;;;7.35;;
68479;SDS011;55469;48.934;12.050;2023-08-17T13:54:56;7.90;;;7.20;;
68479;SDS011;55469;48.934;12.050;2023-08-17T13:57:22;8.43;;;7.63;;
68479;SDS011;55469;48.934;12.050;2023-08-17T13:59:48;7.85;;;7.10;;
68479;SDS011;55469;48.934;12.050;2023-08-17T14:02:14;7.82;;;7.00;;
68479;SDS011;55469;48.934;12.050;2023-08-17T14:04:40;8.00;;;7.22;;
68479;SDS011;55469;48.934;12.050;2023-08-17T14:07:05;7.28;;;6.63;;
68479;SDS011;55469;48.934;12.050;2023-08-17T14:09:31;7.43;;;6.78;;
68479;SDS011;55469;48.934;12.050;2023-08-17T14:11:57;7.65;;;6.97;;
68479;SDS011;55469;48.934;12.050;2023-08-17T14:14:22;7.20;;;6.50;;
68479;SDS011;55469;48.934;12.050;2023-08-17T14:16:48;7.88;;;7.18;;
68479;SDS011;55469;48.934;12.050;2023-08-17T14:19:14;7.35;;;6.75;;
68479;SDS011;55469;48.934;12.050;2023-08-17T14:21:39;7.25;;;6.65;;
68479;SDS011;55469;48.934;12.050;2023-08-17T14:24:05;7.50;;;6.80;;
68479;SDS011;55469;48.934;12.050;2023-08-17T14:26:33;7.38;;;6.78;;
68479;SDS011;55469;48.934;12.050;2023-08-17T14:28:59;6.95;;;6.28;;
68479;SDS011;55469;48.934;12.050;2023-08-17T14:31:25;6.65;;;6.07;;
68479;SDS011;55469;48.934;12.050;2023-08-17T14:33:50;6.72;;;6.15;;
68479;SDS011;55469;48.934;12.050;2023-08-17T14:36:16;6.80;;;6.20;;
68479;SDS011;55469;48.934;12.050;2023-08-17T14:38:42;6.97;;;6.28;;
68479;SDS011;55469;48.934;12.050;2023-08-17T14:41:07;6.90;;;6.28;;
68479;SDS011;55469;48.934;12.050;2023-08-17T14:43:34;7.00;;;6.30;;
68479;SDS011;55469;48.934;12.050;2023-08-17T14:46:00;6.90;;;6.20;;
68479;SDS011;55469;48.934;12.050;2023-08-17T14:48:26;6.30;;;5.80;;